Time;durP1;ratioP1;P1;durP2;ratioP2;P2;SDS_P1;SDS_P2;PMS_P1;PMS_P2;Temp;Humidity;BMP_temperature;BMP_pressure;BME280_temperature;BME280_humidity;BME280_pressure;Samples;Min_cycle;Max_cycle;Signal;HPM_P1;HPM_P2
2021/06/16 00:00:54;;;;;;;6.72;2.15;;;;;;;;;;5054283;28;20055;-84
2021/06/16 00:03:20;;;;;;;5.85;1.70;;;;;;;;;;5056806;28;20468;-84
2021/06/16 00:05:45;;;;;;;6.85;1.60;;;;;;;;;;5058402;28;20028;-85
2021/06/16 00:08:11;;;;;;;4.45;1.70;;;;;;;;;;5057046;28;20031;-84
2021/06/16 00:10:36;;;;;;;5.97;1.70;;;;;;;;;;5058756;28;20021;-84
2021/06/16 00:13:02;;;;;;;8.88;1.90;;;;;;;;;;5055331;28;20024;-84
2021/06/16 00:15:30;;;;;;;6.13;1.83;;;;;;;;;;5051490;28;20032;-84
2021/06/16 00:17:55;;;;;;;8.13;1.92;;;;;;;;;;5054040;28;20115;-84
2021/06/16 00:20:20;;;;;;;6.63;1.92;;;;;;;;;;5058481;28;20053;-84
2021/06/16 00:22:46;;;;;;;5.78;1.95;;;;;;;;;;5055978;28;20016;-84
2021/06/16 00:25:11;;;;;;;3.97;1.80;;;;;;;;;;5082837;28;20116;-84
2021/06/16 00:27:37;;;;;;;6.28;2.03;;;;;;;;;;5054519;28;20147;-84
2021/06/16 00:30:03;;;;;;;7.00;2.00;;;;;;;;;;5059402;28;20054;-84
2021/06/16 00:32:28;;;;;;;5.80;1.80;;;;;;;;;;5051336;28;20458;-84
2021/06/16 00:34:53;;;;;;;7.40;2.10;;;;;;;;;;5060163;28;20099;-84
2021/06/16 00:37:19;;;;;;;6.38;1.95;;;;;;;;;;5059066;28;20013;-84
2021/06/16 00:39:44;;;;;;;6.32;2.20;;;;;;;;;;5055965;28;20017;-84
2021/06/16 00:42:09;;;;;;;5.60;2.10;;;;;;;;;;5058885;28;20012;-84
2021/06/16 00:44:34;;;;;;;11.82;2.05;;;;;;;;;;5054103;28;20087;-84
2021/06/16 00:47:00;;;;;;;5.57;2.05;;;;;;;;;;5059971;28;20024;-84
2021/06/16 00:49:25;;;;;;;4.68;1.83;;;;;;;;;;5051039;28;20033;-84
2021/06/16 00:51:50;;;;;;;9.85;2.70;;;;;;;;;;5057772;28;20021;-84
2021/06/16 00:54:16;;;;;;;4.63;2.15;;;;;;;;;;5051681;28;20025;-84
2021/06/16 00:56:42;;;;;;;9.15;2.20;;;;;;;;;;5055604;28;20484;-83
2021/06/16 00:59:07;;;;;;;9.40;2.28;;;;;;;;;;5061862;28;20016;-84
2021/06/16 01:01:33;;;;;;;7.68;2.20;;;;;;;;;;5052914;28;20021;-84
2021/06/16 01:04:05;;;;;;;6.95;2.50;;;;;;;;;;5060992;28;20440;-84
2021/06/16 01:06:30;;;;;;;6.85;2.28;;;;;;;;;;5070734;28;20401;-84
2021/06/16 01:09:03;;;;;;;5.80;2.30;;;;;;;;;;5059504;28;20036;-83
2021/06/16 01:11:29;;;;;;;7.07;2.67;;;;;;;;;;5051222;28;20356;-84
2021/06/16 01:13:57;;;;;;;7.82;2.33;;;;;;;;;;5057709;28;20408;-84
2021/06/16 01:16:52;;;;;;;14.60;2.58;;;;;;;;;;5058374;28;20070;-85
2021/06/16 01:19:29;;;;;;;9.43;2.47;;;;;;;;;;5042193;28;20374;-84
2021/06/16 01:21:59;;;;;;;11.35;2.83;;;;;;;;;;5057122;28;20017;-84
2021/06/16 01:24:26;;;;;;;7.90;2.28;;;;;;;;;;5087710;28;20017;-84
2021/06/16 01:26:54;;;;;;;6.50;2.20;;;;;;;;;;5056374;28;20431;-85
2021/06/16 01:29:28;;;;;;;6.15;2.40;;;;;;;;;;5052663;28;20505;-84
2021/06/16 01:31:53;;;;;;;5.25;2.17;;;;;;;;;;5055911;28;20032;-84
2021/06/16 01:34:19;;;;;;;10.30;2.25;;;;;;;;;;5060250;28;20020;-84
2021/06/16 01:36:45;;;;;;;10.32;2.33;;;;;;;;;;5054931;28;20656;-84
2021/06/16 01:39:11;;;;;;;7.97;2.15;;;;;;;;;;5058805;28;20017;-83
2021/06/16 01:41:37;;;;;;;5.32;2.20;;;;;;;;;;5055827;28;20051;-84
2021/06/16 01:44:03;;;;;;;3.53;2.45;;;;;;;;;;5050474;28;20029;-84
2021/06/16 01:46:29;;;;;;;6.05;2.40;;;;;;;;;;5054151;28;20052;-84
2021/06/16 01:48:54;;;;;;;4.95;2.40;;;;;;;;;;5056305;28;20067;-83
2021/06/16 01:51:20;;;;;;;5.25;2.22;;;;;;;;;;5053245;28;20424;-84
2021/06/16 01:53:47;;;;;;;5.57;2.47;;;;;;;;;;5055849;28;20112;-84
2021/06/16 01:56:13;;;;;;;6.22;2.58;;;;;;;;;;5059747;28;20017;-84
2021/06/16 01:58:41;;;;;;;4.93;2.40;;;;;;;;;;5052072;28;20033;-84
2021/06/16 02:01:07;;;;;;;8.60;2.45;;;;;;;;;;5057751;28;20098;-84
2021/06/16 02:03:33;;;;;;;6.57;2.35;;;;;;;;;;5089685;28;20024;-84
2021/06/16 02:05:58;;;;;;;13.48;3.20;;;;;;;;;;5060927;28;20021;-84
2021/06/16 02:08:25;;;;;;;9.40;2.90;;;;;;;;;;5058394;28;20352;-84
2021/06/16 02:10:51;;;;;;;9.60;2.50;;;;;;;;;;5060097;28;20048;-84
2021/06/16 02:13:22;;;;;;;6.88;2.63;;;;;;;;;;5059052;28;20109;-83
2021/06/16 02:15:50;;;;;;;9.00;2.50;;;;;;;;;;5063683;28;20376;-84
2021/06/16 02:18:16;;;;;;;8.43;3.42;;;;;;;;;;5053704;28;20013;-83
2021/06/16 02:20:42;;;;;;;9.00;2.83;;;;;;;;;;5061395;28;20016;-84
2021/06/16 02:23:08;;;;;;;8.25;3.00;;;;;;;;;;5058480;28;20013;-84
2021/06/16 02:25:33;;;;;;;7.50;2.67;;;;;;;;;;5059657;28;20025;-84
2021/06/16 02:27:58;;;;;;;11.57;3.70;;;;;;;;;;5056721;28;20027;-84
2021/06/16 02:30:24;;;;;;;8.60;2.70;;;;;;;;;;5090180;28;20035;-84
2021/06/16 02:32:49;;;;;;;10.55;2.75;;;;;;;;;;5063627;28;20072;-84
2021/06/16 02:35:14;;;;;;;11.07;3.15;;;;;;;;;;5058104;28;20045;-84
2021/06/16 02:37:43;;;;;;;7.80;3.90;;;;;;;;;;5060322;28;20111;-84
2021/06/16 02:40:13;;;;;;;8.25;3.38;;;;;;;;;;5057624;28;20013;-84
2021/06/16 02:42:48;;;;;;;9.20;2.65;;;;;;;;;;5061963;28;20018;-84
2021/06/16 02:45:14;;;;;;;10.82;3.08;;;;;;;;;;5056827;28;20025;-84
2021/06/16 02:47:40;;;;;;;6.25;3.15;;;;;;;;;;5059396;28;20025;-83
2021/06/16 02:50:06;;;;;;;8.98;3.38;;;;;;;;;;5053031;28;20039;-84
2021/06/16 02:52:32;;;;;;;7.35;2.55;;;;;;;;;;5058519;28;20033;-84
2021/06/16 02:54:59;;;;;;;6.40;3.03;;;;;;;;;;5062970;28;20025;-84
2021/06/16 02:57:25;;;;;;;9.27;3.40;;;;;;;;;;5057837;28;20032;-84
2021/06/16 02:59:52;;;;;;;7.68;2.92;;;;;;;;;;5061626;28;20459;-84
2021/06/16 03:02:20;;;;;;;9.30;3.15;;;;;;;;;;5058472;28;20063;-84
2021/06/16 03:04:46;;;;;;;8.77;2.80;;;;;;;;;;5059964;28;20049;-84
2021/06/16 03:07:11;;;;;;;10.98;3.45;;;;;;;;;;5057590;28;20496;-84
2021/06/16 03:09:38;;;;;;;10.23;3.22;;;;;;;;;;5058970;28;20464;-84
2021/06/16 03:12:04;;;;;;;10.98;3.72;;;;;;;;;;5057279;28;20066;-83
2021/06/16 03:14:30;;;;;;;6.88;3.50;;;;;;;;;;5058648;28;20020;-84
2021/06/16 03:16:57;;;;;;;14.20;4.30;;;;;;;;;;5056476;28;20032;-84
2021/06/16 03:19:23;;;;;;;8.70;3.40;;;;;;;;;;5059299;28;20113;-84
2021/06/16 03:21:48;;;;;;;9.00;3.05;;;;;;;;;;5055759;28;20208;-84
2021/06/16 03:24:14;;;;;;;8.88;3.13;;;;;;;;;;5058486;28;20099;-84
2021/06/16 03:26:40;;;;;;;8.63;2.95;;;;;;;;;;5055261;28;20025;-84
2021/06/16 03:29:06;;;;;;;8.52;3.70;;;;;;;;;;5059640;28;20028;-84
2021/06/16 03:31:31;;;;;;;7.82;3.35;;;;;;;;;;5061217;28;20028;-84
2021/06/16 03:33:57;;;;;;;8.35;3.40;;;;;;;;;;5057020;28;20047;-83
2021/06/16 03:36:23;;;;;;;5.00;3.08;;;;;;;;;;5060685;28;20505;-84
2021/06/16 03:38:49;;;;;;;7.22;3.40;;;;;;;;;;5056237;28;20384;-84
2021/06/16 03:41:14;;;;;;;7.88;3.38;;;;;;;;;;5059387;28;20017;-84
2021/06/16 03:43:41;;;;;;;8.60;3.65;;;;;;;;;;5056731;28;20021;-84
2021/06/16 03:46:07;;;;;;;7.97;3.33;;;;;;;;;;5057972;28;20083;-84
2021/06/16 03:48:33;;;;;;;7.40;3.60;;;;;;;;;;5054856;28;20024;-84
2021/06/16 03:50:59;;;;;;;6.25;3.58;;;;;;;;;;5058843;28;20028;-83
2021/06/16 03:53:24;;;;;;;11.55;3.72;;;;;;;;;;5061534;28;20055;-83
2021/06/16 03:55:50;;;;;;;12.77;3.65;;;;;;;;;;5056604;28;20021;-84
2021/06/16 03:58:16;;;;;;;9.88;3.97;;;;;;;;;;5059062;28;20045;-84
2021/06/16 04:00:42;;;;;;;8.95;3.55;;;;;;;;;;5055853;28;20067;-83
2021/06/16 04:03:09;;;;;;;8.57;3.88;;;;;;;;;;5057919;28;20021;-84
2021/06/16 04:05:35;;;;;;;10.07;4.53;;;;;;;;;;5055326;28;20029;-84
2021/06/16 04:08:00;;;;;;;13.82;5.25;;;;;;;;;;5058808;28;20527;-84
2021/06/16 04:10:26;;;;;;;12.50;5.05;;;;;;;;;;5055888;28;20044;-84
2021/06/16 04:12:52;;;;;;;17.63;5.40;;;;;;;;;;5057053;28;20025;-84
2021/06/16 04:15:17;;;;;;;12.80;4.93;;;;;;;;;;5056821;28;20021;-84
2021/06/16 04:17:42;;;;;;;12.90;5.07;;;;;;;;;;5053250;28;20028;-84
2021/06/16 04:20:08;;;;;;;11.60;4.90;;;;;;;;;;5054722;28;20067;-84
2021/06/16 04:22:33;;;;;;;17.25;4.88;;;;;;;;;;5057464;28;20028;-84
2021/06/16 04:24:58;;;;;;;12.52;4.63;;;;;;;;;;5053345;28;20079;-84
2021/06/16 04:27:24;;;;;;;14.27;4.60;;;;;;;;;;5054632;28;20025;-83
2021/06/16 04:29:49;;;;;;;13.05;4.75;;;;;;;;;;5060204;28;20135;-84
2021/06/16 04:32:14;;;;;;;10.18;4.45;;;;;;;;;;5056171;28;20456;-84
2021/06/16 04:34:39;;;;;;;10.23;4.20;;;;;;;;;;5060126;28;20016;-84
2021/06/16 04:37:05;;;;;;;13.38;4.40;;;;;;;;;;5055399;28;20056;-84
2021/06/16 04:39:30;;;;;;;15.88;4.53;;;;;;;;;;5058862;28;20078;-84
2021/06/16 04:41:55;;;;;;;11.20;4.00;;;;;;;;;;5054998;28;20554;-84
2021/06/16 04:44:20;;;;;;;16.20;4.82;;;;;;;;;;5058573;28;20017;-84
2021/06/16 04:46:47;;;;;;;9.30;4.13;;;;;;;;;;5055332;28;20028;-84
2021/06/16 04:49:13;;;;;;;16.40;5.22;;;;;;;;;;5056322;28;20104;-84
2021/06/16 04:51:38;;;;;;;9.73;4.07;;;;;;;;;;5061210;28;20563;-84
2021/06/16 04:54:03;;;;;;;10.60;4.50;;;;;;;;;;5055905;28;20017;-84
2021/06/16 04:56:28;;;;;;;11.90;4.57;;;;;;;;;;5059466;28;20391;-83
2021/06/16 04:58:54;;;;;;;9.20;4.55;;;;;;;;;;5055011;28;20483;-83
2021/06/16 05:01:19;;;;;;;14.50;4.43;;;;;;;;;;5057578;28;20028;-84
2021/06/16 05:03:44;;;;;;;15.68;4.70;;;;;;;;;;5055784;28;20017;-83
2021/06/16 05:06:09;;;;;;;15.52;5.93;;;;;;;;;;5058264;28;20055;-84
2021/06/16 05:08:34;;;;;;;16.83;5.53;;;;;;;;;;5053647;28;20028;-84
2021/06/16 05:10:59;;;;;;;15.23;5.50;;;;;;;;;;5056288;28;20526;-84
2021/06/16 05:13:26;;;;;;;12.73;5.75;;;;;;;;;;5054654;28;20024;-84
2021/06/16 05:15:52;;;;;;;16.92;5.82;;;;;;;;;;5057615;28;20446;-84
2021/06/16 05:18:17;;;;;;;18.58;6.32;;;;;;;;;;5053916;28;20100;-84
2021/06/16 05:20:43;;;;;;;11.93;6.45;;;;;;;;;;5056604;28;20013;-84
2021/06/16 05:23:08;;;;;;;29.48;7.28;;;;;;;;;;5054750;28;20364;-84
2021/06/16 05:25:33;;;;;;;15.80;6.75;;;;;;;;;;5055530;28;20025;-84
2021/06/16 05:27:58;;;;;;;22.15;7.10;;;;;;;;;;5051928;28;20017;-84
2021/06/16 05:30:24;;;;;;;15.18;7.60;;;;;;;;;;5054737;28;20021;-85
2021/06/16 05:32:49;;;;;;;15.50;7.85;;;;;;;;;;5084898;28;20025;-84
2021/06/16 05:35:14;;;;;;;15.38;6.65;;;;;;;;;;5054352;28;20116;-84
2021/06/16 05:37:42;;;;;;;22.05;6.75;;;;;;;;;;5084501;28;20017;-84
2021/06/16 05:40:08;;;;;;;14.43;6.00;;;;;;;;;;5058669;28;20017;-84
2021/06/16 05:42:33;;;;;;;18.08;6.45;;;;;;;;;;5054080;28;20028;-84
2021/06/16 05:44:58;;;;;;;19.27;6.10;;;;;;;;;;5058149;28;20075;-84
2021/06/16 05:47:24;;;;;;;28.02;6.47;;;;;;;;;;5059549;28;20421;-84
2021/06/16 05:49:49;;;;;;;23.63;6.70;;;;;;;;;;5063806;28;20079;-84
2021/06/16 05:52:14;;;;;;;21.77;7.55;;;;;;;;;;5058783;28;20043;-84
2021/06/16 05:54:39;;;;;;;17.77;6.47;;;;;;;;;;5057570;28;20113;-84
2021/06/16 05:57:05;;;;;;;17.00;6.82;;;;;;;;;;5059388;28;20025;-84
2021/06/16 05:59:30;;;;;;;18.70;7.43;;;;;;;;;;5061092;28;20021;-84
2021/06/16 06:01:55;;;;;;;23.80;7.22;;;;;;;;;;5057242;28;20029;-84
2021/06/16 06:04:20;;;;;;;15.35;6.03;;;;;;;;;;5053203;28;20021;-84
2021/06/16 06:06:45;;;;;;;14.52;6.00;;;;;;;;;;5056265;28;20035;-84
2021/06/16 06:09:11;;;;;;;14.07;5.28;;;;;;;;;;5059142;28;20078;-85
2021/06/16 06:11:37;;;;;;;25.05;5.25;;;;;;;;;;5064645;28;20044;-85
2021/06/16 06:14:02;;;;;;;9.07;4.68;;;;;;;;;;5059267;28;20021;-84
2021/06/16 06:16:28;;;;;;;16.20;4.80;;;;;;;;;;5050031;28;20025;-84
2021/06/16 06:18:53;;;;;;;14.45;4.78;;;;;;;;;;5053477;28;20013;-84
2021/06/16 06:21:18;;;;;;;13.68;4.40;;;;;;;;;;5054574;28;20396;-84
2021/06/16 06:23:44;;;;;;;16.80;4.43;;;;;;;;;;5052848;28;20021;-84
2021/06/16 06:26:09;;;;;;;18.50;5.78;;;;;;;;;;5053288;28;20021;-84
2021/06/16 06:28:36;;;;;;;15.10;5.22;;;;;;;;;;5053416;28;20102;-84
2021/06/16 06:31:01;;;;;;;13.25;4.07;;;;;;;;;;5052935;28;20076;-84
2021/06/16 06:33:27;;;;;;;12.18;4.78;;;;;;;;;;5053051;28;20029;-84
2021/06/16 06:35:52;;;;;;;19.92;5.50;;;;;;;;;;5051780;28;20060;-84
2021/06/16 06:38:17;;;;;;;13.07;4.57;;;;;;;;;;5052728;28;20063;-84
2021/06/16 06:40:43;;;;;;;12.05;4.18;;;;;;;;;;5052866;28;20017;-84
2021/06/16 06:43:08;;;;;;;19.60;4.85;;;;;;;;;;5051257;28;20040;-85
2021/06/16 06:45:33;;;;;;;14.05;4.75;;;;;;;;;;5052475;28;20036;-84
2021/06/16 06:47:59;;;;;;;23.63;4.13;;;;;;;;;;5034663;28;20049;-84
2021/06/16 06:50:24;;;;;;;16.90;4.40;;;;;;;;;;5052618;28;20051;-84
2021/06/16 06:52:49;;;;;;;16.40;4.68;;;;;;;;;;5051900;28;20016;-85
2021/06/16 06:55:15;;;;;;;15.52;5.10;;;;;;;;;;5052642;28;20021;-84
2021/06/16 06:57:40;;;;;;;13.77;4.50;;;;;;;;;;5052405;28;20171;-85
2021/06/16 07:00:06;;;;;;;16.55;4.50;;;;;;;;;;5053144;28;20024;-85
2021/06/16 07:02:32;;;;;;;18.25;4.68;;;;;;;;;;5052215;28;20027;-84
2021/06/16 07:04:57;;;;;;;15.45;4.55;;;;;;;;;;5053115;28;20092;-84
2021/06/16 07:07:22;;;;;;;7.05;3.47;;;;;;;;;;5051830;28;20052;-85
2021/06/16 07:09:48;;;;;;;11.85;3.97;;;;;;;;;;5052277;28;20066;-84
2021/06/16 07:12:13;;;;;;;13.00;4.57;;;;;;;;;;5053352;28;20033;-84
2021/06/16 07:14:39;;;;;;;14.13;4.30;;;;;;;;;;5052667;28;20467;-84
2021/06/16 07:17:05;;;;;;;14.40;4.93;;;;;;;;;;5052270;28;20495;-85
2021/06/16 07:19:30;;;;;;;8.70;4.20;;;;;;;;;;5055286;28;20025;-85
2021/06/16 07:21:55;;;;;;;10.68;4.85;;;;;;;;;;5054401;28;20361;-84
2021/06/16 07:24:20;;;;;;;11.20;5.57;;;;;;;;;;5056696;28;20025;-84
2021/06/16 07:26:46;;;;;;;13.88;5.25;;;;;;;;;;5051693;28;20021;-85
2021/06/16 07:29:11;;;;;;;16.58;5.50;;;;;;;;;;5089417;28;20028;-85
2021/06/16 07:31:36;;;;;;;16.77;5.25;;;;;;;;;;5053378;28;20104;-84
2021/06/16 07:34:02;;;;;;;14.15;4.97;;;;;;;;;;5054134;28;20182;-84
2021/06/16 07:36:27;;;;;;;10.65;5.07;;;;;;;;;;5053138;28;20028;-84
2021/06/16 07:38:52;;;;;;;17.77;6.18;;;;;;;;;;5051487;28;20044;-85
2021/06/16 07:41:17;;;;;;;15.57;5.93;;;;;;;;;;5053902;28;20019;-85
2021/06/16 07:43:43;;;;;;;14.70;5.88;;;;;;;;;;5058151;28;20667;-85
2021/06/16 07:46:08;;;;;;;14.50;6.63;;;;;;;;;;5057068;28;20017;-84
2021/06/16 07:48:33;;;;;;;14.65;5.45;;;;;;;;;;5056088;28;20016;-85
2021/06/16 07:50:58;;;;;;;17.65;6.20;;;;;;;;;;5059144;28;20021;-84
2021/06/16 07:53:24;;;;;;;15.80;5.47;;;;;;;;;;5053585;28;20024;-85
2021/06/16 07:55:49;;;;;;;17.77;6.35;;;;;;;;;;5052482;28;20464;-85
2021/06/16 07:58:14;;;;;;;15.07;5.70;;;;;;;;;;5081525;28;20020;-85
2021/06/16 08:00:39;;;;;;;18.05;6.30;;;;;;;;;;5057981;28;20499;-85
2021/06/16 08:03:05;;;;;;;14.00;6.20;;;;;;;;;;5055737;28;20057;-85
2021/06/16 08:05:30;;;;;;;15.55;6.65;;;;;;;;;;5057954;28;20032;-85
2021/06/16 08:07:55;;;;;;;13.55;5.78;;;;;;;;;;5051483;28;20464;-84
2021/06/16 08:10:20;;;;;;;14.73;6.40;;;;;;;;;;5060801;28;20016;-85
2021/06/16 08:12:46;;;;;;;14.40;5.63;;;;;;;;;;5055454;28;20258;-85
2021/06/16 08:15:11;;;;;;;14.85;6.45;;;;;;;;;;5059036;28;20029;-85
2021/06/16 08:17:36;;;;;;;17.10;6.25;;;;;;;;;;5054919;28;20024;-85
2021/06/16 08:20:03;;;;;;;14.77;6.28;;;;;;;;;;5057275;28;20032;-85
2021/06/16 08:22:28;;;;;;;10.05;5.28;;;;;;;;;;5053548;28;20020;-85
2021/06/16 08:24:56;;;;;;;14.02;6.25;;;;;;;;;;5054796;28;20385;-85
2021/06/16 08:27:21;;;;;;;16.05;6.15;;;;;;;;;;5060911;28;20045;-85
2021/06/16 08:29:46;;;;;;;11.18;5.80;;;;;;;;;;5049919;28;20041;-85
2021/06/16 08:32:11;;;;;;;12.27;6.28;;;;;;;;;;5058371;28;20017;-85
2021/06/16 08:34:36;;;;;;;20.10;6.40;;;;;;;;;;5056255;28;20020;-85
2021/06/16 08:37:03;;;;;;;13.20;5.50;;;;;;;;;;5084803;28;20018;-85
2021/06/16 08:39:28;;;;;;;16.50;6.55;;;;;;;;;;5054700;28;20024;-85
2021/06/16 08:41:53;;;;;;;18.25;6.25;;;;;;;;;;5051397;28;20019;-85
2021/06/16 08:44:19;;;;;;;17.23;6.90;;;;;;;;;;5052369;28;20068;-86
2021/06/16 08:46:44;;;;;;;14.13;6.85;;;;;;;;;;5057039;28;20037;-85
2021/06/16 08:49:10;;;;;;;15.73;6.60;;;;;;;;;;5058354;28;20482;-85
2021/06/16 08:51:36;;;;;;;23.27;6.50;;;;;;;;;;5054038;28;20039;-85
2021/06/16 08:54:01;;;;;;;17.52;6.47;;;;;;;;;;5058130;28;20032;-85
2021/06/16 08:56:26;;;;;;;20.30;6.53;;;;;;;;;;5053835;28;20056;-85
2021/06/16 08:58:51;;;;;;;13.73;6.43;;;;;;;;;;5057048;28;20025;-85
2021/06/16 09:01:17;;;;;;;17.88;6.65;;;;;;;;;;5053959;28;20017;-85
2021/06/16 09:03:42;;;;;;;14.25;6.78;;;;;;;;;;5056986;28;20373;-85
2021/06/16 09:06:07;;;;;;;13.68;6.93;;;;;;;;;;5051159;28;20078;-84
2021/06/16 09:08:33;;;;;;;20.40;6.38;;;;;;;;;;5058140;28;20020;-85
2021/06/16 09:10:59;;;;;;;18.73;6.93;;;;;;;;;;5057583;28;20122;-85
2021/06/16 09:13:27;;;;;;;18.10;6.55;;;;;;;;;;5060547;28;20070;-86
2021/06/16 09:15:52;;;;;;;18.00;6.50;;;;;;;;;;5053865;28;20024;-85
2021/06/16 09:18:17;;;;;;;15.30;7.57;;;;;;;;;;5051461;28;20032;-85
2021/06/16 09:20:46;;;;;;;20.35;7.53;;;;;;;;;;5052913;28;20055;-85
2021/06/16 09:23:20;;;;;;;12.65;6.78;;;;;;;;;;5055235;28;20031;-85
2021/06/16 09:26:04;;;;;;;19.90;7.28;;;;;;;;;;5057250;28;20480;-85
2021/06/16 09:28:33;;;;;;;13.48;7.20;;;;;;;;;;5054843;28;20693;-85
2021/06/16 09:30:59;;;;;;;13.70;6.72;;;;;;;;;;5058968;28;20029;-85
2021/06/16 09:33:26;;;;;;;25.17;8.98;;;;;;;;;;5054517;28;20032;-85
2021/06/16 09:35:51;;;;;;;19.60;8.75;;;;;;;;;;5056322;28;20036;-86
2021/06/16 09:38:37;;;;;;;20.67;8.00;;;;;;;;;;5053838;28;20383;-85
2021/06/16 09:41:02;;;;;;;15.32;7.35;;;;;;;;;;5055457;28;20024;-85
2021/06/16 09:43:28;;;;;;;13.25;6.28;;;;;;;;;;5054357;28;20078;-85
2021/06/16 09:46:01;;;;;;;12.85;6.47;;;;;;;;;;5048641;28;20445;-85
2021/06/16 09:48:28;;;;;;;16.52;7.70;;;;;;;;;;5049799;28;20136;-85
2021/06/16 09:51:18;;;;;;;19.05;7.95;;;;;;;;;;5049818;28;20067;-85
2021/06/16 09:53:52;;;;;;;21.50;8.93;;;;;;;;;;5043772;28;20387;-85
2021/06/16 09:56:17;;;;;;;15.25;8.00;;;;;;;;;;5062622;28;20027;-85
2021/06/16 09:58:42;;;;;;;15.80;7.40;;;;;;;;;;5049735;28;20108;-86
2021/06/16 10:01:08;;;;;;;18.83;7.30;;;;;;;;;;5051119;28;20025;-85
2021/06/16 10:03:33;;;;;;;14.43;8.18;;;;;;;;;;5050091;28;20074;-85
2021/06/16 10:06:12;;;;;;;15.38;7.63;;;;;;;;;;5049469;28;20052;-86
2021/06/16 10:08:37;;;;;;;11.73;6.85;;;;;;;;;;5049847;28;20048;-85
2021/06/16 10:11:07;;;;;;;16.85;7.57;;;;;;;;;;5051183;28;20021;-85
2021/06/16 10:13:33;;;;;;;12.23;7.88;;;;;;;;;;5050980;28;20098;-85
2021/06/16 10:15:59;;;;;;;14.40;8.07;;;;;;;;;;5058687;28;20025;-86
2021/06/16 10:18:25;;;;;;;16.55;8.70;;;;;;;;;;5050353;28;20079;-86
2021/06/16 10:20:54;;;;;;;18.58;9.20;;;;;;;;;;5057009;28;20036;-85
2021/06/16 10:23:20;;;;;;;11.80;7.53;;;;;;;;;;5058593;28;20156;-86
2021/06/16 10:25:45;;;;;;;21.15;9.52;;;;;;;;;;5058157;28;20111;-85
2021/06/16 10:28:12;;;;;;;13.45;8.27;;;;;;;;;;5062361;28;20417;-86
2021/06/16 10:30:41;;;;;;;15.27;7.85;;;;;;;;;;5055475;28;20025;-85
2021/06/16 10:33:25;;;;;;;14.05;8.55;;;;;;;;;;5063722;28;20012;-85
2021/06/16 10:36:04;;;;;;;14.30;7.82;;;;;;;;;;5055745;28;20036;-86
2021/06/16 10:38:30;;;;;;;13.02;8.55;;;;;;;;;;5081560;28;20136;-86
2021/06/16 10:40:57;;;;;;;15.23;8.35;;;;;;;;;;5055018;28;20047;-85
2021/06/16 10:43:43;;;;;;;16.30;7.10;;;;;;;;;;5059188;28;20042;-85
2021/06/16 10:46:12;;;;;;;19.33;9.68;;;;;;;;;;5062636;28;20341;-85
2021/06/16 10:48:50;;;;;;;16.38;8.52;;;;;;;;;;5059275;28;20021;-85
2021/06/16 10:51:23;;;;;;;18.15;8.35;;;;;;;;;;5061866;28;20025;-85
2021/06/16 10:54:07;;;;;;;21.52;8.02;;;;;;;;;;5057147;28;20205;-86
2021/06/16 10:56:39;;;;;;;13.95;8.18;;;;;;;;;;5054950;28;20021;-85
2021/06/16 10:59:04;;;;;;;14.80;7.95;;;;;;;;;;5057009;28;20464;-85
2021/06/16 11:01:44;;;;;;;13.88;8.00;;;;;;;;;;5059789;28;20025;-85
2021/06/16 11:04:09;;;;;;;18.25;7.70;;;;;;;;;;5056529;28;20016;-85
2021/06/16 11:06:37;;;;;;;23.55;8.38;;;;;;;;;;5059952;28;20033;-85
2021/06/16 11:09:03;;;;;;;12.77;8.00;;;;;;;;;;5055482;28;20021;-85
2021/06/16 11:11:50;;;;;;;11.60;7.43;;;;;;;;;;5060283;28;20071;-85
2021/06/16 11:14:37;;;;;;;11.90;7.03;;;;;;;;;;5056557;28;20476;-86
2021/06/16 11:17:03;;;;;;;14.38;6.82;;;;;;;;;;5054152;28;20078;-85
2021/06/16 11:19:34;;;;;;;10.50;6.82;;;;;;;;;;5054413;28;20017;-85
2021/06/16 11:22:03;;;;;;;15.25;7.20;;;;;;;;;;5052819;28;20070;-85
2021/06/16 11:24:47;;;;;;;11.73;6.50;;;;;;;;;;5056621;28;20034;-85
2021/06/16 11:27:13;;;;;;;9.77;5.80;;;;;;;;;;5060749;28;20494;-85
2021/06/16 11:29:56;;;;;;;11.90;6.55;;;;;;;;;;5059850;28;20070;-85
2021/06/16 11:32:22;;;;;;;13.63;7.50;;;;;;;;;;5062008;28;20052;-85
2021/06/16 11:34:48;;;;;;;11.25;7.47;;;;;;;;;;5056238;28;20110;-85
2021/06/16 11:37:33;;;;;;;12.85;6.03;;;;;;;;;;5058908;28;20107;-86
2021/06/16 11:40:02;;;;;;;9.48;5.40;;;;;;;;;;5077168;28;20017;-85
2021/06/16 11:42:27;;;;;;;13.52;6.50;;;;;;;;;;5089849;28;20021;-86
2021/06/16 11:44:53;;;;;;;11.38;5.85;;;;;;;;;;5054893;28;20366;-85
2021/06/16 11:47:18;;;;;;;9.20;5.72;;;;;;;;;;5088551;28;20028;-85
2021/06/16 11:49:44;;;;;;;15.82;6.60;;;;;;;;;;5061971;28;20025;-85
2021/06/16 11:52:09;;;;;;;15.60;6.45;;;;;;;;;;5056833;28;20147;-85
2021/06/16 11:54:38;;;;;;;17.85;6.15;;;;;;;;;;5093766;28;20086;-85
2021/06/16 11:57:07;;;;;;;13.77;6.00;;;;;;;;;;5056182;28;20063;-85
2021/06/16 11:59:34;;;;;;;10.15;5.50;;;;;;;;;;5058408;28;20092;-85
2021/06/16 12:02:03;;;;;;;9.32;5.13;;;;;;;;;;5047385;28;20418;-85
2021/06/16 12:04:41;;;;;;;11.77;6.35;;;;;;;;;;5059040;28;20079;-85
2021/06/16 12:07:06;;;;;;;13.20;6.45;;;;;;;;;;5047458;28;20079;-85
2021/06/16 12:09:48;;;;;;;15.32;7.22;;;;;;;;;;5056881;28;20431;-85
2021/06/16 12:12:13;;;;;;;16.60;6.60;;;;;;;;;;5049558;28;20034;-85
2021/06/16 12:14:39;;;;;;;15.13;6.43;;;;;;;;;;5053350;28;20028;-85
2021/06/16 12:17:04;;;;;;;12.73;5.13;;;;;;;;;;5084856;28;20051;-85
2021/06/16 12:19:33;;;;;;;15.57;5.55;;;;;;;;;;5056179;28;20132;-85
2021/06/16 12:22:08;;;;;;;9.23;4.97;;;;;;;;;;5053899;28;20468;-85
2021/06/16 12:24:40;;;;;;;9.80;5.25;;;;;;;;;;5047050;28;20029;-84
2021/06/16 12:27:06;;;;;;;12.10;5.20;;;;;;;;;;5051445;28;20063;-85
2021/06/16 12:29:32;;;;;;;10.27;5.43;;;;;;;;;;5061983;28;20120;-85
2021/06/16 12:32:01;;;;;;;8.50;4.95;;;;;;;;;;5054524;28;20036;-85
2021/06/16 12:34:32;;;;;;;10.75;6.00;;;;;;;;;;5056302;28;20056;-85
2021/06/16 12:37:04;;;;;;;12.40;5.70;;;;;;;;;;5054343;28;20453;-85
2021/06/16 12:39:30;;;;;;;13.55;6.15;;;;;;;;;;5058961;28;20589;-85
2021/06/16 12:41:57;;;;;;;12.27;5.43;;;;;;;;;;5054170;28;20077;-84
2021/06/16 12:44:35;;;;;;;12.23;5.63;;;;;;;;;;5056259;28;20074;-85
2021/06/16 12:47:08;;;;;;;11.25;5.78;;;;;;;;;;5052424;28;20051;-84
2021/06/16 12:49:35;;;;;;;8.00;4.95;;;;;;;;;;5056534;28;20111;-84
2021/06/16 12:52:03;;;;;;;8.50;5.00;;;;;;;;;;5061330;28;20467;-85
2021/06/16 12:54:29;;;;;;;12.95;4.70;;;;;;;;;;5054163;28;20024;-85
2021/06/16 12:57:03;;;;;;;13.27;5.10;;;;;;;;;;5062791;28;20013;-84
2021/06/16 12:59:51;;;;;;;7.63;4.63;;;;;;;;;;5047229;28;20075;-84
2021/06/16 13:02:27;;;;;;;10.35;4.70;;;;;;;;;;5055161;28;20040;-85
2021/06/16 13:04:56;;;;;;;12.05;4.95;;;;;;;;;;5055873;28;20356;-84
2021/06/16 13:07:22;;;;;;;13.32;4.55;;;;;;;;;;5057182;28;20021;-85
2021/06/16 13:10:01;;;;;;;9.80;5.13;;;;;;;;;;5052530;28;20048;-84
2021/06/16 13:12:26;;;;;;;8.18;4.85;;;;;;;;;;5049627;28;20468;-84
2021/06/16 13:14:58;;;;;;;11.38;4.97;;;;;;;;;;5055005;28;20021;-84
2021/06/16 13:17:23;;;;;;;6.07;4.22;;;;;;;;;;5058373;28;20029;-84
2021/06/16 13:19:56;;;;;;;6.93;4.32;;;;;;;;;;5088220;28;20082;-84
2021/06/16 13:22:37;;;;;;;8.88;4.55;;;;;;;;;;5057358;28;20024;-84
2021/06/16 13:25:04;;;;;;;10.77;4.88;;;;;;;;;;5053670;28;20720;-84
2021/06/16 13:27:29;;;;;;;9.38;4.18;;;;;;;;;;5056055;28;20035;-84
2021/06/16 13:30:01;;;;;;;11.88;4.53;;;;;;;;;;5053444;28;20024;-85
2021/06/16 13:32:26;;;;;;;;;;;;;;;;;;5057934;28;20384;-84
2021/06/16 13:34:52;;;;;;;12.30;5.10;;;;;;;;;;5058581;28;20323;-84
2021/06/16 13:37:17;;;;;;;5.90;4.28;;;;;;;;;;5055154;28;20031;-84
2021/06/16 13:39:45;;;;;;;7.07;4.25;;;;;;;;;;5059306;28;20460;-85
2021/06/16 13:42:17;;;;;;;11.02;4.25;;;;;;;;;;5056029;28;20029;-84
2021/06/16 13:44:43;;;;;;;8.27;4.45;;;;;;;;;;5056911;28;20025;-84
2021/06/16 13:47:08;;;;;;;7.97;4.50;;;;;;;;;;5050369;28;20025;-85
2021/06/16 13:49:33;;;;;;;16.35;4.80;;;;;;;;;;5057886;28;20353;-84
2021/06/16 13:51:58;;;;;;;16.80;4.55;;;;;;;;;;5053132;28;20028;-85
2021/06/16 13:54:24;;;;;;;11.90;4.47;;;;;;;;;;5055738;28;20017;-84
2021/06/16 13:56:49;;;;;;;8.93;3.78;;;;;;;;;;5052666;28;20270;-84
2021/06/16 13:59:14;;;;;;;8.95;4.72;;;;;;;;;;5058561;28;20021;-84
2021/06/16 14:01:39;;;;;;;7.30;4.10;;;;;;;;;;5061222;28;20376;-84
2021/06/16 14:04:04;;;;;;;10.00;3.90;;;;;;;;;;5054244;28;20013;-84
2021/06/16 14:06:29;;;;;;;5.35;3.78;;;;;;;;;;5093351;28;20032;-85
2021/06/16 14:08:56;;;;;;;8.05;3.75;;;;;;;;;;5057665;28;20036;-84
2021/06/16 14:11:21;;;;;;;6.18;3.88;;;;;;;;;;5059350;28;20111;-84
2021/06/16 14:13:46;;;;;;;5.10;3.38;;;;;;;;;;5060082;28;20060;-85
2021/06/16 14:16:13;;;;;;;5.70;4.03;;;;;;;;;;5055902;28;20384;-84
2021/06/16 14:18:38;;;;;;;6.00;3.60;;;;;;;;;;5058404;28;20075;-85
2021/06/16 14:21:03;;;;;;;6.43;3.58;;;;;;;;;;5062009;28;20025;-84
2021/06/16 14:23:29;;;;;;;6.55;3.92;;;;;;;;;;5057599;28;20078;-84
2021/06/16 14:25:55;;;;;;;7.55;4.10;;;;;;;;;;5061874;28;20041;-85
2021/06/16 14:28:23;;;;;;;8.68;3.33;;;;;;;;;;5056926;28;20029;-85
2021/06/16 14:30:49;;;;;;;6.43;3.88;;;;;;;;;;5059243;28;20075;-85
2021/06/16 14:33:14;;;;;;;8.30;4.00;;;;;;;;;;5056287;28;20025;-85
2021/06/16 14:35:39;;;;;;;7.50;3.80;;;;;;;;;;5060089;28;20380;-85